CSUN New Campus Station -PST Time - Most Recent Data on bottom of page




           Date/Time      Avg      Avg      Max     Wind      Avg      Max      Min      Avg      Avg    Total      Avg     Batt
                         Wind     Wind     Wind      Dir     Temp     Temp     Temp       RH      Bar     Rain    Solar     Volt
                      Spd MPH      Dir  Spd MPH   at Max    Deg_F    Deg_F    Deg_F        % Press_mb   Inches     W/m2      Min
--------------------------------------------------------------------------------------------------------------------------------
    09/26/2016 00:00      1.7      344      5.3      308     75.9     76.9     74.2       14     1014     0.00        0     13.1
    09/26/2016 00:15      1.1      321      4.5      147     75.3     76.4     73.5       17     1014     0.00        0     13.1
    09/26/2016 00:30      1.1      322      3.8      254     72.4     73.7     71.6       17     1014     0.00        0     13.1
    09/26/2016 00:45      1.1      110      9.0      142     71.4     72.5     70.2       22     1014     0.00        0     13.1
    09/26/2016 01:00      1.9      179      9.1      154     70.6     71.1     70.2       22     1014     0.00        0     13.1
    09/26/2016 01:15      1.2      119      6.3      138     70.3     71.0     69.7       24     1014     0.00        0     13.1
    09/26/2016 01:30      1.6       38      4.5      149     69.6     70.6     69.0       21     1014     0.00        0     13.2
    09/26/2016 01:45      2.2       25      6.7      148     70.7     71.8     70.1       17     1014     0.00        0     13.2
    09/26/2016 02:00      1.5      333      4.2      329     71.3     72.0     70.4       19     1014     0.00        0     13.2
    09/26/2016 02:15      1.0      328      4.1      347     70.3     70.9     69.5       21     1013     0.00        0     13.2
    09/26/2016 02:30      0.8      322      2.9      323     70.0     70.3     69.7       21     1013     0.00        0     13.2
    09/26/2016 02:45      0.7      243      3.0      300     68.9     70.0     68.1       23     1013     0.00        0     13.2
    09/26/2016 03:00      1.4      300      3.0      157     68.9     69.8     68.0       25     1013     0.00        0     13.2
    09/26/2016 03:15      1.4      242      6.6      161     67.4     68.1     66.8       28     1013     0.00        0     13.2
    09/26/2016 03:30      1.2      209      5.5      165     66.7     67.2     66.3       25     1013     0.00        0     13.2
    09/26/2016 03:45      1.4      320      2.8      323     67.6     68.3     67.1       23     1013     0.00        0     13.2
    09/26/2016 04:00      0.7      297      2.9      156     67.5     68.3     66.2       26     1013     0.00        0     13.2
    09/26/2016 04:15      0.8      324      2.9      335     66.6     66.9     66.0       24     1013     0.00        0     13.2
    09/26/2016 04:30      1.8      331      3.5      330     68.0     68.8     66.7       24     1013     0.00        0     13.2
    09/26/2016 04:45      0.0        0      0.0      336     66.6     68.1     65.3       28     1013     0.00        0     13.2
    09/26/2016 05:00      0.1       82      1.4       63     65.1     65.4     64.9       27     1013     0.00        0     13.2
    09/26/2016 05:15      0.0      336      0.9      336     65.0     65.2     64.6       28     1014     0.00        0     13.2
    09/26/2016 05:30      0.0      332      1.0      336     64.6     65.2     64.0       30     1014     0.00        0     13.2
    09/26/2016 05:45      0.7      338      2.2      335     65.0     65.8     64.0       28     1014     0.00        1     13.2
    09/26/2016 06:00      0.0        0      0.0       57     64.5     65.4     63.7       30     1014     0.00        6     13.2
    09/26/2016 06:15      0.2      333      1.7      335     64.3     65.4     63.7       29     1014     0.00       13     13.2
    09/26/2016 06:30      0.0      337      1.0      338     65.7     66.3     65.2       29     1014     0.00       36     13.2
    09/26/2016 06:45      0.0        0      0.0      317     68.8     71.9     66.2       24     1014     0.00      130     13.2
    09/26/2016 07:00      0.0        0      0.0       91     73.6     74.6     71.9       22     1014     0.00      175     13.2
    09/26/2016 07:15      0.0        0      0.0      319     76.2     78.2     74.3       17     1014     0.00      223     13.1
    09/26/2016 07:30      0.7      187      3.4      185     79.4     80.4     78.1       16     1014     0.00      271     13.1
    09/26/2016 07:45      0.2      185      1.8      185     81.1     82.4     79.9       16     1014     0.00      319     13.1
    09/26/2016 08:00      0.7      188      2.6      187     83.1     84.0     82.5       14     1014     0.00      368     13.0
    09/26/2016 08:15      0.4      189      1.8      191     84.9     85.9     84.0       14     1015     0.00      414     13.0
    09/26/2016 08:30      0.5      289      5.7      204     88.3     90.3     85.8       14     1014     0.00      461     12.9
    09/26/2016 08:45      2.7      188      5.6      185     87.8     89.3     86.9       16     1014     0.00      502     12.9
    09/26/2016 09:00      2.8      194      5.2      204     88.9     90.5     87.7       14     1014     0.00      545     12.9
    09/26/2016 09:15      0.9      300      6.6      295     93.2     95.0     90.5        9     1014     0.00      585     12.9
    09/26/2016 09:30      1.8      321      6.3       22     95.6     96.3     94.8        9     1014     0.00      383     12.9
    09/26/2016 09:45      2.7      324      8.0      338     96.2     97.0     95.7        9     1014     0.00      204     12.9
    09/26/2016 10:00      2.6      321      7.0       16     97.0     97.6     96.5        9     1014     0.00      685     12.9
    09/26/2016 10:15      3.1      316      9.0      303     97.2     98.0     96.8        9     1014     0.00      712     12.8
    09/26/2016 10:30      3.6      309      9.6      315     97.9     98.4     97.4        9     1014     0.00      736     12.8
    09/26/2016 10:45      3.9      313      9.3      337     97.5     98.0     97.1        8     1014     0.00      744     12.8
    09/26/2016 11:00      3.4      302      7.8      277     98.1     98.7     97.3        8     1013     0.00      769     12.8
    09/26/2016 11:15      3.2      315      7.4      340     98.4     99.3     97.5        8     1013     0.00      782     12.8
    09/26/2016 11:30      3.8      288     14.4      345     98.7     99.0     98.3       10     1013     0.00      789     12.8
    09/26/2016 11:45      4.3      307     12.1       -0     98.7     99.1     98.3        8     1013     0.00      791     12.8
    09/26/2016 12:00      3.8      312      9.8      332     99.0     99.7     98.2        7     1013     0.00      792     12.8
    09/26/2016 12:15      5.4      302     11.9      340     98.9     99.8     98.2        8     1013     0.00      788     12.8
    09/26/2016 12:30      5.3      334     18.3      347     99.4    100.0     98.7        8     1013     0.00      779     12.8
    09/26/2016 12:45      4.8      334     12.7      333     99.5    100.2     98.9        8     1012     0.00      766     12.8
    09/26/2016 13:00      5.6      330     17.6      335     99.8    100.3     99.3        8     1012     0.00      749     12.8
    09/26/2016 13:15      4.2      348     11.1      337    100.1    100.8     99.5        7     1012     0.00      729     12.8
    09/26/2016 13:30      4.4      322     11.8      332    100.1    100.7     99.5        7     1012     0.00      705     12.8
    09/26/2016 13:45      4.1      343     12.6      341    100.5    101.1     99.6        7     1012     0.00      677     12.8
    09/26/2016 14:00      4.1      346     15.9      328    100.3    101.1     99.4        7     1011     0.00      647     12.8
    09/26/2016 14:15      3.9      339     13.6      328    100.6    101.2     99.8        7     1011     0.00      611     12.8
    09/26/2016 14:30      3.2       26     11.1       18    100.8    101.8    100.0        7     1011     0.00      575     12.8
    09/26/2016 14:45      3.9      334     13.4        3    100.7    101.4    100.3        7     1011     0.00      539     12.8
    09/26/2016 15:00      3.6      318     10.7      326    100.4    101.1     99.8        7     1011     0.00      501     12.8
    09/26/2016 15:15      3.7      328     11.0        0    100.5    101.0    100.1        7     1011     0.00      465     12.8
    09/26/2016 15:30      4.1      341     12.7      352    100.4    100.9     99.8        7     1011     0.00      422     12.8
    09/26/2016 15:45      4.3      318     14.3      339     99.8    100.4     99.3        8     1010     0.00      367     12.8
    09/26/2016 16:00      4.0      336     16.1      347     99.5     99.8     99.3        7     1010     0.00      293     12.8
    09/26/2016 16:15      4.2      341     13.6      353     99.5    100.0     99.0        7     1010     0.00      225     12.8
    09/26/2016 16:30      4.2      342     13.2      339     98.9     99.2     98.4        7     1010     0.00       57     12.8
    09/26/2016 16:45      5.4      338     13.4      350     98.2     98.6     97.8        8     1010     0.00       54     12.8
    09/26/2016 17:00      4.9      330     13.7      336     97.8     98.2     97.5        8     1010     0.00       52     12.9
    09/26/2016 17:15      4.9      333     14.8      308     97.4     97.8     97.0        8     1010     0.00       74     12.9
    09/26/2016 17:30      3.3      344      9.3      347     96.7     97.3     96.1        8     1010     0.00       34     12.9
    09/26/2016 17:45      2.6      350      8.6      326     95.7     96.3     95.0        8     1010     0.00        8     12.9
    09/26/2016 18:00      4.1       72      8.6       92     94.2     95.2     93.0       10     1010     0.00        2     12.9
    09/26/2016 18:15      5.4       74     12.1       87     92.1     93.1     91.1       11     1011     0.00        0     12.9
    09/26/2016 18:30      4.3       62     11.4       57     90.5     91.3     89.7       12     1011     0.00        0     12.9
    09/26/2016 18:45      1.9       49      6.8       98     89.1     89.9     88.3       13     1011     0.00        0     12.9
    09/26/2016 19:00      2.0       65      6.1       51     87.9     88.5     87.3       14     1011     0.00        0     12.9
    09/26/2016 19:15      0.3      145      2.8      100     86.3     87.6     84.9       15     1011     0.00        0     13.0
    09/26/2016 19:30      0.1       31      1.6       63     84.0     85.0     83.3       16     1012     0.00        0     13.0
    09/26/2016 19:45      1.2       51      4.4       91     84.3     85.2     83.0       18     1012     0.00        0     13.0
    09/26/2016 20:00      0.5      310      1.9      268     82.0     83.0     81.5       16     1012     0.00        0     13.0
    09/26/2016 20:15      1.6       47      3.3       57     82.8     83.8     81.9       15     1012     0.00        0     13.0
    09/26/2016 20:30      1.7        5      3.7       54     83.4     84.1     82.2       17     1012     0.00        0     13.0
    09/26/2016 20:45      0.9      263      2.4      252     79.8     82.2     78.3       24     1012     0.00        0     13.0
    09/26/2016 21:00      0.5      325      2.3      340     78.1     78.5     77.8       23     1012     0.00        0     13.0
    09/26/2016 21:15      0.4      343      2.1      333     77.7     78.0     77.4       21     1012     0.00        0     13.0
    09/26/2016 21:30      0.6       12      2.7      344     77.3     77.8     76.5       22     1012     0.00        0     13.1
    09/26/2016 21:45      0.0       33      0.8       34     76.3     76.6     76.0       23     1012     0.00        0     13.1
    09/26/2016 22:00      0.2      328      1.4      335     76.3     76.7     76.0       22     1012     0.00        0     13.1
    09/26/2016 22:15      0.4      190      3.3      169     75.6     76.9     74.8       25     1012     0.00        0     13.1
    09/26/2016 22:30      0.0      325      0.8      323     74.8     75.0     74.1       28     1012     0.00        0     13.1
    09/26/2016 22:45      0.0        0      0.0      324     74.0     74.3     73.7       27     1012     0.00        0     13.1
    09/26/2016 23:00      0.2       89      2.5       50     73.4     73.9     73.0       27     1012     0.00        0     13.1
    09/26/2016 23:15      0.2      298      2.3      335     73.8     74.0     73.5       26     1012     0.00        0     13.1
    09/26/2016 23:30      0.0      258      1.4      261     73.2     73.9     72.5       29     1011     0.00        0     13.1
    09/26/2016 23:45      0.0        0      0.0      286     72.3     72.7     71.9       29     1011     0.00        0     13.1
    09/27/2016 00:00      0.2      332      1.9      332     71.8     72.2     71.5       31     1011     0.00        0     13.1
    09/27/2016 00:15      0.2      326      1.5      330     72.0     72.3     71.7       30     1011     0.00        0     13.1
    09/27/2016 00:30      0.7      323      2.3      326     71.3     72.5     70.5       28     1011     0.00        0     13.1
    09/27/2016 00:45      0.2      328      1.1      317     72.0     72.6     71.2       29     1011     0.00        0     13.2
    09/27/2016 01:00      0.1      336      1.4      345     70.9     71.3     70.6       30     1011     0.00        0     13.2
    09/27/2016 01:15      0.0       91      1.2       86     69.8     70.7     69.3       31     1011     0.00        0     13.2
    09/27/2016 01:30      0.0      347      1.6      339     69.8     70.4     69.4       31     1011     0.00        0     13.2
    09/27/2016 01:45      0.0        0      1.2       -0     70.0     70.3     69.7       32     1010     0.00        0     13.2
    09/27/2016 02:00      0.0       35      1.2       90     69.5     70.1     69.2       31     1010     0.00        0     13.2
    09/27/2016 02:15      0.0        0      0.0      311     69.1     69.9     68.1       33     1010     0.00        0     13.2
    09/27/2016 02:30      0.0      293      1.3      280     68.8     69.2     68.3       32     1010     0.00        0     13.2
    09/27/2016 02:45      0.1      326      1.8      345     69.4     69.8     68.9       31     1010     0.00        0     13.2
    09/27/2016 03:00      0.0        0      0.0      349     69.0     69.7     68.4       34     1010     0.00        0     13.2
    09/27/2016 03:15      1.4      102      4.5       82     68.5     69.5     68.0       31     1010     0.00        0     13.2
    09/27/2016 03:30      0.5       80      3.7       87     69.8     70.0     69.4       31     1010     0.00        0     13.2
    09/27/2016 03:45      3.0       68      6.9       80     70.7     73.0     69.6       22     1011     0.00        0     13.2
    09/27/2016 04:00      5.4       64      9.3       62     77.6     80.5     73.1       14     1011     0.00        0     13.2
    09/27/2016 04:15      3.8       50      7.9       48     80.2     80.5     79.7       14     1011     0.00        0     13.1
    09/27/2016 04:30      2.2       45      5.1       47     78.9     79.9     77.8       15     1011     0.00        0     13.1
    09/27/2016 04:45      1.9       35      3.7       46     77.5     78.0     76.7       16     1011     0.00        0     13.1
    09/27/2016 05:00      0.4       25      3.3       34     75.8     76.8     74.2       21     1011     0.00        0     13.1
    09/27/2016 05:15      0.7      249      2.3      278     72.0     74.3     71.0       24     1011     0.00        0     13.1
    09/27/2016 05:30      0.9      150      4.0      150     70.8     71.1     70.2       28     1011     0.00        0     13.2
    09/27/2016 05:45      0.0       83      0.9       84     69.7     70.5     69.1       30     1011     0.00        1     13.2
    09/27/2016 06:00      0.0       63      1.0       62     68.6     69.3     68.1       32     1011     0.00        5     13.2
    09/27/2016 06:15      0.0        0      0.0       48     67.7     68.6     67.0       33     1011     0.00       12     13.2
    09/27/2016 06:30      0.5      327      2.2      326     68.5     69.4     67.4       31     1011     0.00       47     13.2
    09/27/2016 06:45      0.0        0      0.0      329     70.4     71.9     69.2       29     1011     0.00      112     13.2
    09/27/2016 07:00      0.3      303      3.8      287     73.5     74.9     71.8       24     1011     0.00      170     13.1
    09/27/2016 07:15      0.7      268      2.8      244     76.5     78.1     74.8       23     1011     0.00      239     13.1
    09/27/2016 07:30      1.0      276      5.0       73     80.3     81.9     78.1       21     1011     0.00      283     13.1
    09/27/2016 07:45      1.7      265      7.7      346     81.0     83.5     80.1       13     1011     0.00      319     13.0
    09/27/2016 08:00      4.0      360     12.4      354     87.2     88.8     83.5       11     1011     0.00      364     13.0
    09/27/2016 08:15      5.4      357     12.1      332     89.3     89.9     88.7       10     1011     0.00      408     13.0
    09/27/2016 08:30      4.2      348     14.5      331     90.2     91.2     89.5       10     1011     0.00      450     12.9
    09/27/2016 08:45      4.5       71     11.6       65     89.8     91.5     87.6       15     1011     0.00      500     12.9
    09/27/2016 09:00      4.5       92     10.0       91     87.6     88.2     87.0       15     1011     0.00      537     12.9
    09/27/2016 09:15      4.1       93      7.4       74     89.0     90.1     88.0       14     1011     0.00      568     12.9
    09/27/2016 09:30      3.7      100      8.2      129     90.4     91.5     89.7       13     1011     0.00      401     12.9
    09/27/2016 09:45      3.0      100      8.4       92     91.3     92.1     90.9       12     1011     0.00      300     12.9
    09/27/2016 10:00      3.9      121      9.0      143     92.0     92.7     91.3       13     1011     0.00      664     12.9
    09/27/2016 10:15      3.7       94      7.6       90     92.8     93.2     92.4       12     1011     0.00      694     12.9
    09/27/2016 10:30      3.3      130      8.5       97     93.2     94.7     92.4       12     1011     0.00      716     12.9
    09/27/2016 10:45      4.3      117      9.0      148     94.5     95.2     93.7       12     1010     0.00      732     12.8
    09/27/2016 11:00      4.7      140     13.3       65     94.7     95.8     94.1       11     1010     0.00      745     12.8
    09/27/2016 11:15      4.6      116     10.7       93     95.6     96.4     95.2       11     1010     0.00      762     12.8
    09/27/2016 11:30      5.3      138     10.3      160     95.5     95.9     95.2       11     1010     0.00      783     12.8
    09/27/2016 11:45      4.7      138     10.4       72     95.5     96.2     94.8       12     1010     0.00      786     12.8
    09/27/2016 12:00      5.1      141     11.0      145     96.2     97.2     95.7       11     1010     0.00      806     12.8
    09/27/2016 12:15      3.9      167      9.7      123     95.0     96.3     94.5       12     1010     0.00      741     12.8
    09/27/2016 12:30      3.7      132     11.8      151     95.2     95.8     94.5       12     1010     0.00      435     12.8
    09/27/2016 12:45      3.5      134      9.2      151     95.3     96.7     94.1       12     1009     0.00      647     12.8
    09/27/2016 13:00      4.1      134      7.7      143     95.5     96.0     94.9       12     1009     0.00      615     12.8
    09/27/2016 13:15      3.8      173      9.3      133     96.0     97.0     95.2       12     1009     0.00      674     12.8
    09/27/2016 13:30      6.0      152     10.7      151     96.0     97.6     94.7       13     1009     0.00      704     12.8
    09/27/2016 13:45      5.7      142     11.4      178     95.1     96.2     94.5       13     1009     0.00      649     12.8
    09/27/2016 14:00      6.6      156     11.2      142     95.2     95.9     94.7       13     1009     0.00      626     12.8
    09/27/2016 14:15      6.4      168     12.7      173     94.6     95.6     93.7       13     1009     0.00      549     12.8
    09/27/2016 14:30      7.2      169     11.4      168     95.1     96.4     93.9       13     1009     0.00      580     12.8
    09/27/2016 14:45      4.1      189     11.5      170     93.7     94.4     93.0       14     1009     0.00      315     12.8
    09/27/2016 15:00      4.4      208     11.0      184     93.8     95.0     92.7       14     1009     0.00      495     12.8
    09/27/2016 15:15      5.6      235     12.0      248     93.0     95.2     91.5       16     1009     0.00      353     12.8
    09/27/2016 15:30      5.8      273     11.2      255     91.3     92.0     90.2       17     1009     0.00      343     12.8
    09/27/2016 15:45      5.8      273     13.9      257     89.9     90.4     89.3       18     1009     0.00      343     12.8
    09/27/2016 16:00      6.0      276     12.7      241     88.9     89.7     88.1       20     1009     0.00      296     12.8
    09/27/2016 16:15      6.3      270     14.2      263     87.7     88.4     86.8       22     1009     0.00      204     12.8
    09/27/2016 16:30      6.7      267     12.7      257     86.7     87.2     86.1       23     1009     0.00       80     12.9
    09/27/2016 16:45      6.0      268     14.4      248     85.6     86.2     85.2       24     1010     0.00       49     12.9
    09/27/2016 17:00      5.0      274     10.2      249     84.8     85.4     84.1       24     1010     0.00       23     12.9
    09/27/2016 17:15      4.4      270     11.0      240     83.6     84.2     82.9       26     1010     0.00       15     13.0
    09/27/2016 17:30      4.4      267      8.8      258     82.7     83.1     82.3       26     1010     0.00       16     13.0
    09/27/2016 17:45      4.1      273      8.4      288     82.2     82.5     81.9       26     1010     0.00        6     13.0
    09/27/2016 18:00      1.7      279      6.3      291     81.8     82.1     81.3       27     1010     0.00        1     13.0
    09/27/2016 18:15      1.1      276      6.2      269     80.9     81.5     80.3       29     1011     0.00        0     13.0
    09/27/2016 18:30      1.8      261      4.2      259     80.2     80.5     80.0       28     1011     0.00        0     13.0
    09/27/2016 18:45      0.3      202      2.5      192     80.1     80.4     79.8       28     1011     0.00        0     13.0
    09/27/2016 19:00      0.2      289      1.3      294     79.2     80.0     78.5       30     1011     0.00        0     13.0
    09/27/2016 19:15      0.0      265      1.5      255     78.1     78.8     77.7       32     1011     0.00        0     13.1
    09/27/2016 19:30      0.1      288      1.8      296     77.5     77.8     77.0       32     1011     0.00        0     13.1
    09/27/2016 19:45      0.1      288      1.7      294     77.2     77.6     76.7       33     1011     0.00        0     13.1
    09/27/2016 20:00      0.2      324      1.8      332     76.7     77.0     76.5       33     1011     0.00        0     13.1
    09/27/2016 20:15      0.1      327      2.1      338     77.0     77.4     76.6       34     1011     0.00        0     13.1
    09/27/2016 20:30      0.0      360      1.9      351     76.7     77.0     76.4       34     1011     0.00        0     13.1
    09/27/2016 20:45      0.1      350      1.9      342     76.7     76.9     76.5       34     1011     0.00        0     13.1
    09/27/2016 21:00      0.1      256      1.6      255     76.3     76.8     76.2       35     1011     0.00        0     13.1
    09/27/2016 21:15      0.0        0      0.0      290     76.4     76.7     76.2       33     1011     0.00        0     13.1
    09/27/2016 21:30      0.0        0      0.0      310     76.4     76.7     76.2       33     1011     0.00        0     13.1
    09/27/2016 21:45      0.0        0      0.0      321     76.2     76.4     75.8       34     1012     0.00        0     13.1
    09/27/2016 22:00      0.1      269      1.4      253     75.6     76.0     75.1       34     1012     0.00        0     13.1
    09/27/2016 22:15      0.0        0      0.0      274     75.3     75.6     75.1       34     1012     0.00        0     13.1
    09/27/2016 22:30      0.0        0      0.0      233     75.2     75.6     74.5       36     1012     0.00        0     13.1
    09/27/2016 22:45      0.6      262      3.2      260     74.3     74.7     73.7       38     1012     0.00        0     13.1
    09/27/2016 23:00      0.2      273      2.1      260     73.9     74.2     73.5       36     1011     0.00        0     13.1
    09/27/2016 23:15      0.0      297      1.2      294     74.0     74.2     73.7       37     1011     0.00        0     13.1
    09/27/2016 23:30      0.0      300      2.0      294     74.0     74.4     73.6       38     1011     0.00        0     13.1
    09/27/2016 23:45      0.6      311      2.7      288     74.5     75.2     74.1       34     1011     0.00        0     13.1
    09/28/2016 00:00      0.0        0      0.0      332     75.4     75.6     75.0       35     1011     0.00        0     13.1
    09/28/2016 00:15      0.0        0      0.0      301     74.8     75.2     74.5       35     1011     0.00        0     13.1
    09/28/2016 00:30      0.0        0      0.0      299     73.8     74.7     73.1       37     1011     0.00        0     13.1
    09/28/2016 00:45      0.0        0      0.0      300     72.9     73.2     72.7       38     1011     0.00        0     13.1
    09/28/2016 01:00      0.2       73      1.8       65     72.7     73.2     72.5       36     1011     0.00        0     13.1
    09/28/2016 01:15      0.0        0      0.0       62     73.3     73.6     73.0       37     1011     0.00        0     13.1
    09/28/2016 01:30      0.3      127      2.0      133     73.1     73.4     72.8       41     1011     0.00        0     13.1
    09/28/2016 01:45      0.0       91      0.2       95     72.9     73.1     72.7       40     1012     0.00        0     13.1
    09/28/2016 02:00      0.8       83      2.2       62     73.4     73.9     72.9       39     1012     0.00        0     13.1
    09/28/2016 02:15      0.0      160      1.2      147     72.8     73.8     72.1       42     1011     0.00        0     13.1
    09/28/2016 02:30      0.0        0      0.0      319     72.7     73.0     72.5       41     1011     0.00        0     13.1
    09/28/2016 02:45      0.5       34      2.4       32     72.9     73.5     72.5       40     1011     0.00        0     13.1
    09/28/2016 03:00      0.7       42      2.5       31     72.9     73.5     72.5       40     1011     0.00        0     13.1
    09/28/2016 03:15      0.6       60      2.0       47     73.5     73.7     73.2       40     1011     0.00        0     13.1
    09/28/2016 03:30      0.2       68      2.1       55     73.0     73.5     72.7       41     1011     0.00        0     13.1
    09/28/2016 03:45      0.4       54      2.3       52     72.1     72.8     71.8       43     1011     0.00        0     13.1
    09/28/2016 04:00      0.3       56      2.5       54     72.0     72.3     71.6       43     1011     0.00        0     13.1
    09/28/2016 04:15      0.5       61      2.9       57     71.4     71.8     70.9       45     1011     0.00        0     13.1
    09/28/2016 04:30      0.4       56      2.6       74     71.0     71.3     70.7       46     1011     0.00        0     13.1
    09/28/2016 04:45      0.1       31      1.4       19     70.6     70.9     70.3       48     1012     0.00        0     13.1
    09/28/2016 05:00      0.2       48      2.0       68     69.8     70.6     69.4       50     1012     0.00        0     13.2
    09/28/2016 05:15      0.1       52      1.7       52     69.3     69.7     68.9       52     1012     0.00        0     13.2
    09/28/2016 05:30      0.1       44      2.1       56     69.3     69.5     68.9       52     1012     0.00        0     13.2
    09/28/2016 05:45      0.0       51      1.0       63     68.7     69.3     68.2       53     1012     0.00        1     13.2
    09/28/2016 06:00      0.0        0      0.0       63     67.8     68.5     67.2       55     1012     0.00        6     13.2
    09/28/2016 06:15      0.0        0      1.6      343     68.0     68.6     67.2       54     1012     0.00       14     13.2
    09/28/2016 06:30      0.1       16      2.4        5     69.2     69.9     68.4       52     1013     0.00       51     13.2
    09/28/2016 06:45      0.1       52      1.9       77     71.3     73.3     69.8       46     1013     0.00      109     13.2
    09/28/2016 07:00      1.6       66      3.7       58     73.6     74.0     73.2       46     1013     0.00      151     13.1
    09/28/2016 07:15      1.6       64      3.3       63     74.4     74.8     73.9       44     1013     0.00      197     13.1
    09/28/2016 07:30      1.6       77      3.5       66     75.0     76.0     74.4       41     1013     0.00      243     13.1
    09/28/2016 07:45      0.8       91      3.4       99     76.6     77.7     75.8       37     1013     0.00      291     13.1
    09/28/2016 08:00      0.2      138      1.4      101     78.3     79.1     77.4       35     1013     0.00      339     13.0
    09/28/2016 08:15      1.2      167      4.7      154     78.5     79.0     77.9       35     1013     0.00      386     13.0
    09/28/2016 08:30      1.4      168      4.2      185     79.0     79.7     78.2       37     1013     0.00      431     13.0
    09/28/2016 08:45      1.4      107      5.3      101     78.8     79.4     77.9       35     1013     0.00      474     13.0
    09/28/2016 09:00      1.8      103      5.8       91     80.0     80.7     78.9       32     1013     0.00      513     12.9
    09/28/2016 09:15      1.4      174      4.8      171     81.7     82.8     80.3       30     1013     0.00      551     12.9
    09/28/2016 09:30      2.5      165      6.4      140     81.8     82.7     80.7       29     1013     0.00      440     12.9
    09/28/2016 09:45      1.2      185      5.4       57     83.3     83.8     82.2       28     1013     0.00      405     12.9
    09/28/2016 10:00      1.1       56      3.8      101     83.4     84.4     82.8       27     1013     0.00      648     12.9
    09/28/2016 10:15      1.9      150      5.2      170     84.5     85.0     84.1       26     1013     0.00      677     12.9
    09/28/2016 10:30      2.1      279      5.8      249     84.6     86.1     84.0       24     1013     0.00      699     12.9
    09/28/2016 10:45      1.3      323      3.6      322     85.8     86.4     85.1       24     1013     0.00      719     12.9
    09/28/2016 11:00      2.4      145      7.2      167     88.0     89.3     86.1       23     1012     0.00      736     12.9
    09/28/2016 11:15      2.9      185      7.8      144     88.0     88.7     87.7       23     1012     0.00      749     12.9
    09/28/2016 11:30      2.6      204      9.4      187     87.9     88.7     87.0       20     1012     0.00      756     12.9
    09/28/2016 11:45      2.4      246      6.1       11     88.5     90.0     87.8       23     1012     0.00      758     12.9
    09/28/2016 12:00      3.2      144      8.5      151     89.4     90.1     88.8       21     1012     0.00      757     12.9
    09/28/2016 12:15      3.2      182      8.1      178     90.4     92.0     89.2       21     1012     0.00      753     12.8
    09/28/2016 12:30      3.7      184      7.1      156     90.9     92.2     89.8       18     1012     0.00      747     12.8
    09/28/2016 12:45      4.8      179     10.7      199     90.8     91.8     90.3       17     1011     0.00      736     12.8
    09/28/2016 13:00      4.1      160      8.9      139     91.8     92.6     90.9       17     1011     0.00      724     12.8
    09/28/2016 13:15      5.1      163     10.6      149     91.6     92.2     91.0       17     1011     0.00      700     12.8
    09/28/2016 13:30      3.5      163      7.5      188     92.5     94.0     91.2       16     1011     0.00      675     12.8
    09/28/2016 13:45      5.1      131     10.5      146     93.2     93.9     92.2       16     1011     0.00      649     12.8
    09/28/2016 14:00      4.8      151     10.7      161     92.1     92.8     91.1       17     1011     0.00      616     12.8
    09/28/2016 14:15      5.8      146     14.9      150     92.3     92.7     91.8       17     1011     0.00      582     12.8
    09/28/2016 14:30      5.3      144     10.3      152     92.1     92.5     91.5       17     1011     0.00      547     12.8
    09/28/2016 14:45      5.1      153     12.2      176     91.5     92.3     90.9       17     1011     0.00      505     12.8
    09/28/2016 15:00      4.3      144      9.3      172     92.5     93.0     92.1       17     1011     0.00      467     12.8
    09/28/2016 15:15      4.7      180      9.9      169     91.8     93.0     91.1       17     1011     0.00      428     12.8
    09/28/2016 15:30      4.5      211     11.9      139     91.0     92.1     90.4       20     1011     0.00      376     12.8
    09/28/2016 15:45      4.5      242     10.7      261     90.3     91.0     89.5       21     1011     0.00      328     12.8
    09/28/2016 16:00      5.5      247     12.1      250     89.2     89.7     88.7       21     1011     0.00      283     12.8
    09/28/2016 16:15      4.4      280      8.9      252     88.6     89.2     88.0       22     1011     0.00      204     12.9
    09/28/2016 16:30      3.6      279      8.9      283     88.0     88.3     87.6       21     1011     0.00      112     12.9
    09/28/2016 16:45      3.9      266     10.6      252     87.9     88.2     87.4       22     1011     0.00      116     12.9
    09/28/2016 17:00      4.5      266     10.3      234     87.4     87.9     87.1       22     1012     0.00       89     12.9
    09/28/2016 17:15      3.6      273      9.3      249     87.2     87.5     86.8       22     1012     0.00       66     12.9
    09/28/2016 17:30      2.8      282      8.1      254     86.3     86.8     85.7       23     1012     0.00       20     12.9
    09/28/2016 17:45      2.6      278      6.2      263     85.5     86.0     85.1       24     1012     0.00        5     12.9
    09/28/2016 18:00      2.4      275      6.0      267     84.7     85.2     84.2       25     1012     0.00        0     13.0
    09/28/2016 18:15      2.7      287      6.0      293     84.0     84.5     83.5       27     1012     0.00        0     13.0
    09/28/2016 18:30      3.2      284      6.8      283     83.4     83.7     83.1       27     1012     0.00        0     13.0
    09/28/2016 18:45      1.7      276      5.3      240     82.9     83.3     82.5       28     1012     0.00        0     13.0
    09/28/2016 19:00      1.6      282      4.4      267     82.3     82.8     81.9       28     1013     0.00        0     13.0
    09/28/2016 19:15      2.0      255      6.0      258     81.7     82.1     81.2       29     1013     0.00        0     13.0
    09/28/2016 19:30      1.6      252      6.0      255     80.9     81.6     80.1       31     1013     0.00        0     13.0
    09/28/2016 19:45      0.6      231      3.0      251     79.8     80.3     79.0       32     1013     0.00        0     13.0
    09/28/2016 20:00      1.2      224      3.4      211     79.2     79.7     78.6       31     1013     0.00        0     13.0
    09/28/2016 20:15      0.6      222      2.8      232     79.3     79.7     78.9       31     1013     0.00        0     13.0
    09/28/2016 20:30      0.1      278      1.5      266     78.8     79.2     78.2       33     1013     0.00        0     13.1
    09/28/2016 20:45      0.0        0      0.0      289     77.8     78.3     77.2       34     1013     0.00        0     13.1
    09/28/2016 21:00      0.0        0      0.0      232     77.0     77.4     76.7       34     1013     0.00        0     13.1
    09/28/2016 21:15      0.0        0      0.0      200     76.4     76.8     76.1       34     1013     0.00        0     13.1
    09/28/2016 21:30      0.0      274      1.0      275     76.3     76.7     75.9       35     1013     0.00        0     13.1
    09/28/2016 21:45      0.0        0      0.0      299     75.6     76.1     75.2       36     1013     0.00        0     13.1
    09/28/2016 22:00      0.0      164      1.4      164     75.6     76.0     74.9       38     1013     0.00        0     13.1
    09/28/2016 22:15      0.6      144      2.5      161     74.5     75.1     74.2       39     1013     0.00        0     13.1
    09/28/2016 22:30      0.0        0      0.0      119     74.6     74.8     74.3       38     1013     0.00        0     13.1
    09/28/2016 22:45      0.0        0      0.0      191     74.0     74.5     73.5       40     1013     0.00        0     13.1
    09/28/2016 23:00      0.0      294      1.3      282     73.7     73.9     73.4       40     1013     0.00        0     13.1
    09/28/2016 23:15      0.0        0      0.0      295     72.9     73.6     72.4       43     1013     0.00        0     13.1
    09/28/2016 23:30      0.0        0      0.0      275     72.4     72.8     71.9       44     1013     0.00        0     13.1
    09/28/2016 23:45      0.0        0      0.0      257     71.7     72.1     71.4       45     1013     0.00        0     13.1
    09/29/2016 00:00      0.0        0      0.0      129     71.3     71.7     71.1       46     1013     0.00        0     13.1
    09/29/2016 00:15      0.0        0      0.0      226     71.1     71.5     70.7       46     1013     0.00        0     13.1
    09/29/2016 00:30      0.0      298      0.7      290     71.0     71.3     70.7       46     1014     0.00        0     13.1
    09/29/2016 00:45      0.0      303      0.5      304     71.1     71.3     70.9       45     1014     0.00        0     13.1
    09/29/2016 01:00      0.0        0      0.0      321     71.0     71.3     70.6       45     1014     0.00        0     13.2
    09/29/2016 01:15      0.0        0      0.0      315     70.1     70.8     69.6       48     1014     0.00        0     13.1
    09/29/2016 01:30      0.0        0      0.0      114     69.7     70.1     69.3       47     1014     0.00        0     13.2
    09/29/2016 01:45      0.0        0      0.0      112     69.8     70.1     69.6       49     1014     0.00        0     13.2
    09/29/2016 02:00      0.0        0      0.0       32     69.4     69.9     68.9       50     1014     0.00        0     13.2
    09/29/2016 02:15      0.0       32      1.6       33     69.2     69.4     68.8       50     1014     0.00        0     13.2
    09/29/2016 02:30      0.2        5      1.5      346     69.3     69.5     69.0       50     1014     0.00        0     13.2
    09/29/2016 02:45      0.4       20      3.3       23     69.9     70.3     69.4       47     1014     0.00        0     13.2
    09/29/2016 03:00      0.1        7      2.2        0     70.3     70.6     70.0       47     1014     0.00        0     13.2
    09/29/2016 03:15      0.0        0      0.0        0     69.3     70.2     68.3       51     1014     0.00        0     13.2
    09/29/2016 03:30      0.0        0      0.0      295     68.5     68.8     68.1       52     1014     0.00        0     13.2
    09/29/2016 03:45      0.0        0      0.0      289     68.0     68.3     67.7       52     1014     0.00        0     13.2
    09/29/2016 04:00      0.0        0      0.0      272     67.9     68.0     67.7       52     1014     0.00        0     13.2
    09/29/2016 04:15      0.0        0      0.0      292     67.7     68.0     67.3       53     1014     0.00        0     13.2
    09/29/2016 04:30      0.0        0      0.0      290     67.5     67.8     67.2       53     1014     0.00        0     13.2
    09/29/2016 04:45      0.0        0      0.0      194     67.1     67.5     66.8       54     1015     0.00        0     13.2
    09/29/2016 05:00      0.0        0      0.0      310     67.1     67.4     66.8       54     1015     0.00        0     13.2
    09/29/2016 05:15      0.0        0      0.0      302     67.2     67.5     66.7       53     1015     0.00        0     13.2
    09/29/2016 05:30      0.0        0      0.0      286     66.5     67.0     66.0       56     1015     0.00        0     13.2
    09/29/2016 05:45      0.0        0      0.0      131     66.1     66.3     65.9       56     1015     0.00        1     13.2
    09/29/2016 06:00      0.0        0      0.0      333     66.4     66.6     66.1       55     1015     0.00        6     13.2
    09/29/2016 06:15      0.0        0      0.0       17     66.3     66.6     66.1       58     1015     0.00       14     13.2
    09/29/2016 06:30      0.0        0      0.0       69     67.0     68.0     66.3       53     1015     0.00       53     13.2
    09/29/2016 06:45      0.0        0      0.0      327     69.6     71.4     67.9       47     1015     0.00      107     13.2
    09/29/2016 07:00      0.0        0      0.0      353     72.6     74.4     71.3       42     1016     0.00      149     13.1
    09/29/2016 07:15      0.0        0      0.0      106     76.1     77.1     74.3       38     1016     0.00      193     13.1
    09/29/2016 07:30      0.0        0      0.0      182     77.7     78.2     76.8       35     1016     0.00      240     13.1
    09/29/2016 07:45      0.7      166      3.6      170     77.7     78.3     77.2       35     1016     0.00      287     13.1
    09/29/2016 08:00      1.6      171      3.9      160     79.5     80.6     78.3       33     1016     0.00      334     13.0
    09/29/2016 08:15      1.5      191      3.4      193     79.3     80.1     79.0       32     1016     0.00      380     13.0
    09/29/2016 08:30      0.5      207      3.4      274     81.0     81.7     79.8       31     1016     0.00      424     13.0
    09/29/2016 08:45      1.7      260      4.4      248     81.5     81.9     80.9       30     1016     0.00      467     13.0
    09/29/2016 09:00      1.4      205      3.8      209     82.7     84.1     81.6       29     1016     0.00      507     12.9
    09/29/2016 09:15      1.9      187      4.1      194     84.9     85.4     83.9       27     1016     0.00      546     12.9
    09/29/2016 09:30      1.4      198      3.3      201     86.2     86.9     85.2       24     1016     0.00      449     12.9
    09/29/2016 09:45      1.2      171      5.6      149     87.2     88.1     86.2       24     1016     0.00      575     12.9
    09/29/2016 10:00      1.3      189      4.9      183     87.6     88.3     86.8       22     1016     0.00      644     12.9
    09/29/2016 10:15      0.7      237      3.6      233     89.0     90.3     87.8       21     1016     0.00      671     12.9
    09/29/2016 10:30      2.0      158      4.9      194     89.9     90.5     88.9       21     1016     0.00      695     12.9
    09/29/2016 10:45      3.3      166      6.5      181     90.8     92.1     89.9       19     1016     0.00      715     12.9
    09/29/2016 11:00      1.9      225      5.8      255     91.7     92.6     90.6       18     1016     0.00      732     12.8
    09/29/2016 11:15      2.4      199      6.3      189     91.6     92.4     90.6       18     1016     0.00      741     12.8
    09/29/2016 11:30      3.5      195      8.2      135     91.9     93.0     91.0       21     1016     0.00      746     12.8
    09/29/2016 11:45      4.0      169      8.7      192     92.2     93.1     91.5       18     1015     0.00      745     12.8
    09/29/2016 12:00      2.9      183      6.9      182     93.4     94.1     92.6       17     1015     0.00      747     12.8
    09/29/2016 12:15      4.0      175      9.3      200     93.6     94.5     92.6       20     1015     0.00      741     12.8
    09/29/2016 12:30      4.7      168     11.7      180     93.6     94.7     93.0       17     1015     0.00      740     12.8
    09/29/2016 12:45      3.2      182      9.0      183     94.3     95.2     93.5       17     1015     0.00      728     12.8
    09/29/2016 13:00      2.3      141      5.7      195     94.3     94.8     93.6       17     1015     0.00      719     12.8
    09/29/2016 13:15      4.1      180     10.0      182     95.0     96.3     94.0       17     1014     0.00      727     12.8
    09/29/2016 13:30      3.6      240     13.4      251     94.4     95.5     93.6       17     1014     0.00      711     12.8
    09/29/2016 13:45      4.9      264     13.2      251     93.3     93.9     93.0       18     1014     0.00      632     12.8
    09/29/2016 14:00      5.4      286     14.3      264     93.6     94.5     92.8       17     1014     0.00      607     12.8
    09/29/2016 14:15      5.6      273     14.2      267     93.1     93.5     92.7       18     1014     0.00      578     12.8
    09/29/2016 14:30      6.8      260     17.3      230     92.8     93.3     92.4       17     1014     0.00      542     12.8
    09/29/2016 14:45      6.7      271     13.7      248     92.1     92.7     91.6       17     1014     0.00      505     12.8
    09/29/2016 15:00      6.4      276     11.6      289     91.8     92.3     91.4       18     1014     0.00      465     12.8
    09/29/2016 15:15      6.5      276     14.8      240     91.4     92.3     90.7       17     1014     0.00      422     12.8
    09/29/2016 15:30      7.0      274     16.2      225     90.4     91.0     89.9       18     1014     0.00      375     12.8
    09/29/2016 15:45      6.2      276     13.8      227     89.8     90.3     89.5       21     1014     0.00      328     12.9
    09/29/2016 16:00      6.7      270     14.1      247     89.3     89.7     88.9       18     1014     0.00      281     12.9
    09/29/2016 16:15      5.1      279     13.0      238     88.8     89.1     88.4       22     1014     0.00      177     12.9
    09/29/2016 16:30      5.8      271     12.9      244     87.9     88.6     87.4       22     1014     0.00       47     12.9
    09/29/2016 16:45      5.6      271     13.5      241     87.2     87.5     86.6       24     1014     0.00       43     12.9
    09/29/2016 17:00      5.1      273     14.6      231     86.3     86.8     86.0       24     1014     0.00       42     12.9
    09/29/2016 17:15      4.9      282      9.9      241     85.8     86.3     85.3       25     1014     0.00       42     12.9
    09/29/2016 17:30      4.1      280      8.2      286     84.9     85.5     84.3       26     1014     0.00       21     12.9
    09/29/2016 17:45      3.5      263      8.6      238     84.1     84.6     83.6       26     1014     0.00        5     13.0
    09/29/2016 18:00      2.8      229      7.6      240     83.1     83.7     82.3       28     1014     0.00        0     13.0
    09/29/2016 18:15      2.5      213      5.0      197     81.7     82.5     81.2       28     1014     0.00        0     13.0
    09/29/2016 18:30      2.8      240      8.7      265     81.7     82.1     81.2       29     1015     0.00        0     13.0
    09/29/2016 18:45      2.5      238      7.8      250     81.1     81.4     80.8       28     1015     0.00        0     13.0
    09/29/2016 19:00      1.9      244      5.2      258     80.6     81.1     80.2       29     1015     0.00        0     13.0
    09/29/2016 19:15      0.9      219      4.4      215     79.8     80.4     79.4       31     1015     0.00        0     13.0
    09/29/2016 19:30      0.6      219      2.9      211     79.0     79.7     78.5       32     1015     0.00        0     13.0
    09/29/2016 19:45      0.9      245      4.3      254     78.8     79.2     78.4       32     1015     0.00        0     13.0
    09/29/2016 20:00      0.5      202      2.6      204     78.4     78.9     77.8       33     1015     0.00        0     13.0
    09/29/2016 20:15      0.3      316      2.4      210     77.7     78.2     77.1       35     1015     0.00        0     13.1
    09/29/2016 20:30      0.2      178      1.8      289     76.9     77.4     76.2       36     1015     0.00        0     13.1
    09/29/2016 20:45      0.0      163      1.4      163     75.9     76.3     75.4       39     1015     0.00        0     13.1
    09/29/2016 21:00      0.0        0      0.0      173     75.3     75.6     75.1       40     1015     0.00        0     13.1
    09/29/2016 21:15      0.0        0      0.0      213     74.8     75.1     74.6       38     1015     0.00        0     13.1
    09/29/2016 21:30      0.0        0      0.0      145     74.5     74.9     74.2       38     1016     0.00        0     13.1
    09/29/2016 21:45      0.0        0      0.0      141     74.1     74.5     73.9       39     1016     0.00        0     13.1
    09/29/2016 22:00      0.0        0      0.0      273     74.1     74.3     73.9       39     1016     0.00        0     13.1
    09/29/2016 22:15      0.0        0      0.0      184     73.9     74.1     73.4       39     1016     0.00        0     13.1
    09/29/2016 22:30      0.9       75      4.3       83     73.8     74.1     73.3       40     1016     0.00        0     13.1
    09/29/2016 22:45      0.5       76      2.1       62     74.0     74.6     73.7       41     1016     0.00        0     13.1
    09/29/2016 23:00      0.6       81      2.4       68     74.1     74.7     73.6       45     1016     0.00        0     13.1
    09/29/2016 23:15      0.3       68      2.1       50     73.5     73.8     73.3       48     1016     0.00        0     13.1
    09/29/2016 23:30      0.2       42      2.0       48     73.1     73.5     72.7       50     1016     0.00        0     13.1
    09/29/2016 23:45      0.0      135      1.0      152     71.8     72.8     70.8       53     1016     0.00        0     13.1
    09/30/2016 00:00      0.0      139      0.7      136     70.7     71.2     70.2       55     1016     0.00        0     13.1
    09/30/2016 00:15      0.0        0      0.0      128     70.0     70.4     69.7       56     1016     0.00        0     13.2
    09/30/2016 00:30      0.0        0      0.0      269     69.7     69.9     69.5       58     1016     0.00        0     13.2
    09/30/2016 00:45      0.0        0      0.0      257     69.6     69.8     69.3       57     1016     0.00        0     13.2
    09/30/2016 01:00      0.0      329      0.7      335     69.7     69.9     69.5       56     1016     0.00        0     13.2
    09/30/2016 01:15      0.0        0      0.0      303     69.1     69.7     68.8       57     1016     0.00        0     13.2
    09/30/2016 01:30      0.0        0      0.0      320     69.1     69.6     68.8       55     1016     0.00        0     13.2
    09/30/2016 01:45      0.0        0      0.0      316     68.9     69.6     68.4       56     1016     0.00        0     13.2
    09/30/2016 02:00      0.0        0      0.0      331     68.3     68.9     67.9       57     1016     0.00        0     13.2
    09/30/2016 02:15      0.0        0      0.0      320     67.8     68.4     67.3       58     1016     0.00        0     13.2
    09/30/2016 02:30      0.0        0      0.0      269     67.3     67.5     67.1       58     1016     0.00        0     13.2
    09/30/2016 02:45      0.0        0      0.0       32     66.9     67.4     66.4       59     1016     0.00        0     13.2
    09/30/2016 03:00      0.0        0      0.0      161     66.2     66.6     66.0       62     1016     0.00        0     13.2
    09/30/2016 03:15      0.0        0      0.0      284     66.4     66.7     66.0       60     1015     0.00        0     13.2
    09/30/2016 03:30      0.0        0      0.0      335     66.4     66.7     66.1       60     1016     0.00        0     13.2
    09/30/2016 03:45      0.0        0      0.0      316     65.9     66.3     65.6       61     1015     0.00        0     13.2
    09/30/2016 04:00      0.0        0      0.0      311     65.7     66.0     65.5       60     1015     0.00        0     13.2
    09/30/2016 04:15      0.0        0      0.0      281     65.6     65.8     65.4       60     1015     0.00        0     13.2
    09/30/2016 04:30      0.0      291      1.7      285     65.8     66.2     65.5       59     1015     0.00        0     13.2
    09/30/2016 04:45      0.0        0      0.0      335     66.0     66.3     65.6       56     1015     0.00        0     13.2
    09/30/2016 05:00      0.0        0      0.0       76     65.7     66.2     65.2       60     1016     0.00        0     13.2
    09/30/2016 05:15      0.0        0      0.0       62     65.7     66.0     65.2       57     1016     0.00        0     13.2
    09/30/2016 05:30      0.0        0      0.0       55     65.6     65.9     65.4       58     1016     0.00        0     13.2
    09/30/2016 05:45      0.0        0      0.0      351     65.5     65.9     65.0       59     1016     0.00        1     13.2
    09/30/2016 06:00      0.0        0      0.0      332     64.8     65.1     64.5       60     1016     0.00        5     13.2
    09/30/2016 06:15      0.0        0      0.0      327     65.1     65.6     64.5       58     1016     0.00       12     13.2
    09/30/2016 06:30      0.0        0      0.0      324     65.5     65.9     65.2       58     1016     0.00       65     13.2
    09/30/2016 06:45      0.0        0      0.0      316     67.2     68.9     65.8       53     1016     0.00      112     13.2
    09/30/2016 07:00      0.0        0      0.0      292     71.0     72.6     68.9       45     1016     0.00      155     13.2
    09/30/2016 07:15      0.0        0      0.0      167     74.6     76.0     72.5       41     1016     0.00      200     13.1
    09/30/2016 07:30      0.0        0      0.0      178     75.4     75.8     75.1       42     1016     0.00      247     13.1
    09/30/2016 07:45      0.0        0      0.0      178     76.4     76.9     75.7       39     1016     0.00      294     13.1
    09/30/2016 08:00      0.0      193      1.4      179     77.9     79.7     76.8       33     1016     0.00      341     13.0
    09/30/2016 08:15      0.4      186      2.5      195     79.5     80.8     79.0       32     1016     0.00      389     13.0
    09/30/2016 08:30      0.9      191      3.2      197     80.5     81.0     80.0       32     1016     0.00      433     13.0
    09/30/2016 08:45      1.8      171      4.0      192     82.6     83.9     80.9       30     1016     0.00      476     13.0
    09/30/2016 09:00      1.7      169      4.8      181     82.7     83.6     82.0       28     1016     0.00      516     12.9
    09/30/2016 09:15      1.3      175      4.6      189     83.3     84.7     82.6       27     1016     0.00      555     12.9
    09/30/2016 09:30      1.3      153      6.3      153     86.1     87.0     84.7       24     1016     0.00      446     12.9
    09/30/2016 09:45      1.5      160      4.0      160     86.6     87.2     85.6       24     1016     0.00      593     12.9
    09/30/2016 10:00      0.8      217      3.7      242     86.1     86.8     85.1       24     1016     0.00      653     12.9
    09/30/2016 10:15      2.2      175      6.1      181     87.1     87.6     86.5       24     1016     0.00      679     12.9
    09/30/2016 10:30      2.0      170      7.1      168     88.0     88.9     87.3       20     1016     0.00      701     12.9
    09/30/2016 10:45      1.9      165      6.4      159     89.5     90.6     88.7       22     1016     0.00      721     12.9
    09/30/2016 11:00      3.0      204      8.5      187     89.7     90.6     89.1       21     1015     0.00      735     12.9
    09/30/2016 11:15      2.6      215      8.7      176     90.1     90.6     89.4       21     1015     0.00      747     12.9
    09/30/2016 11:30      3.7      179      8.0      177     90.8     91.7     90.0       21     1015     0.00      755     12.8
    09/30/2016 11:45      2.0      196      7.2      139     91.8     92.4     91.2       18     1015     0.00      759     12.8
    09/30/2016 12:00      3.2      227     11.1      231     92.4     92.9     91.8       20     1015     0.00      755     12.8
    09/30/2016 12:15      3.4      163      9.8      156     92.5     93.4     91.8       21     1014     0.00      747     12.8
    09/30/2016 12:30      5.9      158     12.4      164     92.3     93.3     91.1       21     1014     0.00      737     12.8
    09/30/2016 12:45      4.7      160      9.6      141     92.9     94.4     91.6       21     1014     0.00      726     12.8
    09/30/2016 13:00      5.6      164     10.3      141     92.5     93.2     91.6       20     1014     0.00      709     12.8
    09/30/2016 13:15      3.5      202      7.5      257     92.5     93.1     92.1       17     1013     0.00      690     12.8
    09/30/2016 13:30      5.2      265     12.4      241     92.2     92.9     91.7       17     1013     0.00      668     12.8
    09/30/2016 13:45      5.6      260     12.1      263     92.1     92.8     91.6       17     1013     0.00      645     12.8
    09/30/2016 14:00      5.8      277     13.8      253     91.9     92.3     91.6       17     1013     0.00      614     12.8
    09/30/2016 14:15      6.3      266     15.4      279     91.3     92.4     90.3       18     1013     0.00      583     12.8
    09/30/2016 14:30      6.3      264     13.3      252     90.7     91.0     90.3       18     1013     0.00      550     12.8
    09/30/2016 14:45      5.9      282     12.8      252     90.6     91.2     90.2       18     1013     0.00      513     12.8
    09/30/2016 15:00      6.7      273     13.9      245     90.3     90.9     89.7       18     1013     0.00      472     12.8
    09/30/2016 15:15      6.3      275     14.2      247     89.8     90.3     89.2       20     1013     0.00      427     12.8
    09/30/2016 15:30      6.8      270     15.0      250     89.1     89.8     88.4       20     1013     0.00      381     12.8
    09/30/2016 15:45      7.0      273     17.0      277     88.2     88.7     87.8       21     1013     0.00      335     12.9
    09/30/2016 16:00      6.1      286     12.4      296     87.4     88.4     86.8       22     1013     0.00      287     12.9
    09/30/2016 16:15      6.2      281     13.0      242     86.3     87.1     85.7       21     1013     0.00      154     12.9
    09/30/2016 16:30      6.7      284     14.9      263     85.1     85.9     84.5       22     1013     0.00       44     12.9
    09/30/2016 16:45      6.1      269     13.9      247     84.3     84.6     84.0       21     1013     0.00       32     12.9
    09/30/2016 17:00      6.7      261     15.9      245     83.4     84.1     83.1       23     1013     0.00       39     13.0
    09/30/2016 17:15      5.0      262     10.9      251     83.0     83.3     82.5       24     1013     0.00       39     13.0
    09/30/2016 17:30      5.6      262     10.4      261     81.9     82.8     81.0       25     1013     0.00       21     13.0